Terminal Aerodrome Forecast
Issued by NWS

Home | Current Version | Previous Version | Graphics & Text | Print | Product List | Glossary On
Versions: 1 2 3 4 5 6 7 8 9 10 11 12 13 14 15 16 17 18 19 20 21 22
000
FTUS41 KCLE 301128
TAFFDY
TAF
KFDY 301128Z 3012/3112 20010KT P6SM SCT035 BKN150
     FM301400 22012KT P6SM VCSH BKN040
     FM301900 22012G20KT 6SM -TSRA BKN040CB
     FM310000 20012KT 4SM -TSRA BR OVC035CB
     FM310400 06008KT 3SM -SHRA BR OVC015=

USA.gov is the U.S. government's official web portal to all federal, state and local government web resources and services.